sensor_id;sensor_type;location;lat;lon;timestamp;pressure;altitude;pressure_sealevel;temperature;humidity
30724;BME280;17473;52.286;20.930;2023-01-31T00:01:39;98973.00;;;3.96;89.45
30724;BME280;17473;52.286;20.930;2023-01-31T00:04:10;98992.28;;;4.00;89.60
30724;BME280;17473;52.286;20.930;2023-01-31T00:06:42;98981.72;;;3.97;89.48
30724;BME280;17473;52.286;20.930;2023-01-31T00:09:11;98994.25;;;4.05;89.20
30724;BME280;17473;52.286;20.930;2023-01-31T00:11:39;98997.03;;;4.10;88.84
30724;BME280;17473;52.286;20.930;2023-01-31T00:14:07;98996.69;;;4.01;89.16
30724;BME280;17473;52.286;20.930;2023-01-31T00:16:36;99002.00;;;4.04;89.22
30724;BME280;17473;52.286;20.930;2023-01-31T00:19:03;99002.78;;;4.01;89.50
30724;BME280;17473;52.286;20.930;2023-01-31T00:21:31;99009.09;;;4.06;89.37
30724;BME280;17473;52.286;20.930;2023-01-31T00:23:59;99010.16;;;4.12;89.06
30724;BME280;17473;52.286;20.930;2023-01-31T00:26:32;99008.91;;;4.02;89.41
30724;BME280;17473;52.286;20.930;2023-01-31T00:29:03;99015.31;;;4.10;89.22
30724;BME280;17473;52.286;20.930;2023-01-31T00:31:32;99016.28;;;4.12;89.34
30724;BME280;17473;52.286;20.930;2023-01-31T00:34:00;99020.91;;;4.19;89.29
30724;BME280;17473;52.286;20.930;2023-01-31T00:36:33;99021.25;;;4.06;89.79
30724;BME280;17473;52.286;20.930;2023-01-31T00:39:03;99020.56;;;4.10;89.59
30724;BME280;17473;52.286;20.930;2023-01-31T00:41:32;99031.09;;;4.13;89.69
30724;BME280;17473;52.286;20.930;2023-01-31T00:43:59;99029.22;;;4.09;89.65
30724;BME280;17473;52.286;20.930;2023-01-31T00:46:27;99028.56;;;4.15;89.62
30724;BME280;17473;52.286;20.930;2023-01-31T00:48:55;99037.09;;;4.11;89.56
30724;BME280;17473;52.286;20.930;2023-01-31T00:51:24;99043.06;;;4.06;89.89
30724;BME280;17473;52.286;20.930;2023-01-31T00:53:52;99042.59;;;4.17;89.53
30724;BME280;17473;52.286;20.930;2023-01-31T00:56:23;99043.09;;;4.08;89.72
30724;BME280;17473;52.286;20.930;2023-01-31T00:58:51;99054.56;;;4.12;89.68
30724;BME280;17473;52.286;20.930;2023-01-31T01:01:23;99051.28;;;4.17;89.63
30724;BME280;17473;52.286;20.930;2023-01-31T01:03:51;99059.56;;;4.05;90.21
30724;BME280;17473;52.286;20.930;2023-01-31T01:06:19;99048.31;;;4.08;89.87
30724;BME280;17473;52.286;20.930;2023-01-31T01:08:46;99058.19;;;4.15;89.82
30724;BME280;17473;52.286;20.930;2023-01-31T01:11:21;99057.13;;;4.10;89.93
30724;BME280;17473;52.286;20.930;2023-01-31T01:13:49;99061.75;;;4.17;89.71
30724;BME280;17473;52.286;20.930;2023-01-31T01:16:25;99060.09;;;4.19;89.46
30724;BME280;17473;52.286;20.930;2023-01-31T01:18:53;99061.09;;;4.23;89.39
30724;BME280;17473;52.286;20.930;2023-01-31T01:21:26;99065.31;;;4.19;89.54
30724;BME280;17473;52.286;20.930;2023-01-31T01:23:57;99070.63;;;4.22;89.71
30724;BME280;17473;52.286;20.930;2023-01-31T01:26:28;99061.56;;;4.13;90.02
30724;BME280;17473;52.286;20.930;2023-01-31T01:28:58;99066.97;;;4.17;89.71
30724;BME280;17473;52.286;20.930;2023-01-31T01:31:26;99059.91;;;4.15;89.31
30724;BME280;17473;52.286;20.930;2023-01-31T01:34:04;99066.31;;;4.23;89.39
30724;BME280;17473;52.286;20.930;2023-01-31T01:36:35;99073.84;;;4.15;89.46
30724;BME280;17473;52.286;20.930;2023-01-31T01:39:05;99078.72;;;4.29;89.27
30724;BME280;17473;52.286;20.930;2023-01-31T01:41:32;99079.22;;;4.18;89.28
30724;BME280;17473;52.286;20.930;2023-01-31T01:44:03;99090.06;;;4.06;89.72
30724;BME280;17473;52.286;20.930;2023-01-31T01:46:38;99086.69;;;4.09;89.76
30724;BME280;17473;52.286;20.930;2023-01-31T01:49:25;99095.22;;;4.05;90.16
30724;BME280;17473;52.286;20.930;2023-01-31T01:51:55;99106.75;;;4.10;89.82
30724;BME280;17473;52.286;20.930;2023-01-31T01:54:32;99098.38;;;4.19;89.65
30724;BME280;17473;52.286;20.930;2023-01-31T01:57:03;99096.31;;;4.10;89.85
30724;BME280;17473;52.286;20.930;2023-01-31T01:59:37;99109.44;;;4.12;90.09
30724;BME280;17473;52.286;20.930;2023-01-31T02:02:06;99102.72;;;4.18;89.64
30724;BME280;17473;52.286;20.930;2023-01-31T02:04:36;99116.44;;;4.13;90.06
30724;BME280;17473;52.286;20.930;2023-01-31T02:07:06;99108.59;;;4.13;90.20
30724;BME280;17473;52.286;20.930;2023-01-31T02:12:53;99127.91;;;4.16;89.98
30724;BME280;17473;52.286;20.930;2023-01-31T02:15:21;99130.56;;;4.18;90.02
30724;BME280;17473;52.286;20.930;2023-01-31T02:17:48;99142.69;;;4.16;90.22
30724;BME280;17473;52.286;20.930;2023-01-31T02:41:17;99167.47;;;4.26;90.29
30724;BME280;17473;52.286;20.930;2023-01-31T02:43:58;99171.53;;;4.19;90.25
30724;BME280;17473;52.286;20.930;2023-01-31T02:46:55;99183.72;;;4.18;90.30
30724;BME280;17473;52.286;20.930;2023-01-31T02:58:37;99202.25;;;4.25;90.18
30724;BME280;17473;52.286;20.930;2023-01-31T03:01:06;99214.72;;;4.32;89.92
30724;BME280;17473;52.286;20.930;2023-01-31T03:03:37;99222.72;;;4.35;89.59
30724;BME280;17473;52.286;20.930;2023-01-31T03:09:05;99224.31;;;4.31;89.26
30724;BME280;17473;52.286;20.930;2023-01-31T03:14:47;99234.75;;;4.31;89.29
30724;BME280;17473;52.286;20.930;2023-01-31T03:20:22;99239.06;;;4.31;89.24
30724;BME280;17473;52.286;20.930;2023-01-31T03:22:58;99246.41;;;4.39;88.69
30724;BME280;17473;52.286;20.930;2023-01-31T03:25:31;99247.00;;;4.32;88.69
30724;BME280;17473;52.286;20.930;2023-01-31T03:28:05;99255.72;;;4.33;88.54
30724;BME280;17473;52.286;20.930;2023-01-31T03:33:42;99255.63;;;4.30;88.20
30724;BME280;17473;52.286;20.930;2023-01-31T03:39:39;99281.47;;;4.45;87.63
30724;BME280;17473;52.286;20.930;2023-01-31T03:42:27;99272.56;;;4.39;87.62
30724;BME280;17473;52.286;20.930;2023-01-31T03:47:45;99284.66;;;4.37;87.58
30724;BME280;17473;52.286;20.930;2023-01-31T03:50:37;99277.00;;;4.42;87.18
30724;BME280;17473;52.286;20.930;2023-01-31T03:53:12;99273.34;;;4.60;86.46
30724;BME280;17473;52.286;20.930;2023-01-31T03:55:52;99283.25;;;4.46;86.54
30724;BME280;17473;52.286;20.930;2023-01-31T03:58:28;99271.19;;;4.49;86.75
30724;BME280;17473;52.286;20.930;2023-01-31T04:01:00;99273.53;;;4.42;85.93
30724;BME280;17473;52.286;20.930;2023-01-31T04:03:42;99283.06;;;4.41;85.88
30724;BME280;17473;52.286;20.930;2023-01-31T04:06:11;99289.00;;;4.58;85.51
30724;BME280;17473;52.286;20.930;2023-01-31T04:08:39;99293.13;;;4.53;84.93
30724;BME280;17473;52.286;20.930;2023-01-31T04:11:11;99290.25;;;4.47;84.95
30724;BME280;17473;52.286;20.930;2023-01-31T04:13:40;99275.03;;;4.36;85.45
30724;BME280;17473;52.286;20.930;2023-01-31T04:16:07;99288.06;;;4.35;85.36
30724;BME280;17473;52.286;20.930;2023-01-31T04:18:34;99293.84;;;4.49;84.67
30724;BME280;17473;52.286;20.930;2023-01-31T04:21:04;99297.81;;;4.39;84.80
30724;BME280;17473;52.286;20.930;2023-01-31T04:23:31;99302.78;;;4.33;84.88
30724;BME280;17473;52.286;20.930;2023-01-31T04:25:59;99312.00;;;4.46;84.52
30724;BME280;17473;52.286;20.930;2023-01-31T04:28:26;99325.03;;;4.44;84.64
30724;BME280;17473;52.286;20.930;2023-01-31T04:30:54;99319.03;;;4.47;84.72
30724;BME280;17473;52.286;20.930;2023-01-31T04:33:23;99332.03;;;4.45;84.27
30724;BME280;17473;52.286;20.930;2023-01-31T04:35:50;99327.41;;;4.38;84.23
30724;BME280;17473;52.286;20.930;2023-01-31T04:38:17;99328.47;;;4.43;84.21
30724;BME280;17473;52.286;20.930;2023-01-31T04:40:44;99327.41;;;4.38;83.99
30724;BME280;17473;52.286;20.930;2023-01-31T04:43:12;99332.72;;;4.41;83.87
30724;BME280;17473;52.286;20.930;2023-01-31T04:45:40;99345.59;;;4.36;83.64
30724;BME280;17473;52.286;20.930;2023-01-31T04:48:07;99343.63;;;4.31;83.76
30724;BME280;17473;52.286;20.930;2023-01-31T04:50:34;99338.53;;;4.34;83.55
30724;BME280;17473;52.286;20.930;2023-01-31T04:53:02;99347.78;;;4.26;83.94
30724;BME280;17473;52.286;20.930;2023-01-31T04:55:30;99348.53;;;4.23;83.74
30724;BME280;17473;52.286;20.930;2023-01-31T04:57:57;99352.84;;;4.22;83.82
30724;BME280;17473;52.286;20.930;2023-01-31T05:00:26;99361.47;;;4.20;83.86
30724;BME280;17473;52.286;20.930;2023-01-31T05:02:53;99355.66;;;4.27;83.51
30724;BME280;17473;52.286;20.930;2023-01-31T05:05:20;99367.84;;;4.27;83.55
30724;BME280;17473;52.286;20.930;2023-01-31T05:07:47;99361.47;;;4.20;83.94
30724;BME280;17473;52.286;20.930;2023-01-31T05:10:14;99375.44;;;4.20;83.53
30724;BME280;17473;52.286;20.930;2023-01-31T05:12:41;99380.66;;;4.20;83.86
30724;BME280;17473;52.286;20.930;2023-01-31T05:15:09;99383.81;;;4.13;84.01
30724;BME280;17473;52.286;20.930;2023-01-31T05:17:37;99390.41;;;4.25;83.62
30724;BME280;17473;52.286;20.930;2023-01-31T05:20:05;99393.03;;;4.25;83.70
30724;BME280;17473;52.286;20.930;2023-01-31T05:22:33;99391.84;;;4.18;83.13
30724;BME280;17473;52.286;20.930;2023-01-31T05:25:00;99405.59;;;4.33;83.17
30724;BME280;17473;52.286;20.930;2023-01-31T05:27:27;99406.53;;;4.35;82.68
30724;BME280;17473;52.286;20.930;2023-01-31T05:29:54;99405.03;;;4.41;82.84
30724;BME280;17473;52.286;20.930;2023-01-31T05:32:21;99411.19;;;4.21;83.02
30724;BME280;17473;52.286;20.930;2023-01-31T05:34:48;99420.28;;;4.30;83.19
30724;BME280;17473;52.286;20.930;2023-01-31T05:37:15;99427.81;;;4.23;83.14
30724;BME280;17473;52.286;20.930;2023-01-31T05:39:42;99429.19;;;4.35;82.79
30724;BME280;17473;52.286;20.930;2023-01-31T05:42:09;99432.28;;;4.26;82.95
30724;BME280;17473;52.286;20.930;2023-01-31T05:44:36;99437.66;;;4.29;82.84
30724;BME280;17473;52.286;20.930;2023-01-31T05:47:03;99436.88;;;4.32;82.25
30724;BME280;17473;52.286;20.930;2023-01-31T05:49:30;99430.34;;;4.42;81.84
30724;BME280;17473;52.286;20.930;2023-01-31T05:51:59;99435.59;;;4.42;81.42
30724;BME280;17473;52.286;20.930;2023-01-31T05:54:28;99448.09;;;4.29;81.88
30724;BME280;17473;52.286;20.930;2023-01-31T05:56:55;99459.38;;;4.28;81.59
30724;BME280;17473;52.286;20.930;2023-01-31T05:59:22;99466.47;;;4.31;81.34
30724;BME280;17473;52.286;20.930;2023-01-31T06:01:49;99471.44;;;4.25;81.23
30724;BME280;17473;52.286;20.930;2023-01-31T06:04:16;99473.22;;;4.26;81.58
30724;BME280;17473;52.286;20.930;2023-01-31T06:06:43;99480.19;;;4.25;81.26
30724;BME280;17473;52.286;20.930;2023-01-31T06:09:11;99482.69;;;4.23;81.50
30724;BME280;17473;52.286;20.930;2023-01-31T06:11:38;99478.66;;;4.30;80.87
30724;BME280;17473;52.286;20.930;2023-01-31T06:14:05;99483.63;;;4.24;80.94
30724;BME280;17473;52.286;20.930;2023-01-31T06:16:32;99488.28;;;4.31;80.94
30724;BME280;17473;52.286;20.930;2023-01-31T06:18:59;99494.38;;;4.32;81.21
30724;BME280;17473;52.286;20.930;2023-01-31T06:21:27;99504.13;;;4.34;80.72
30724;BME280;17473;52.286;20.930;2023-01-31T06:23:54;99509.13;;;4.30;80.96
30724;BME280;17473;52.286;20.930;2023-01-31T06:26:22;99504.13;;;4.34;80.72
30724;BME280;17473;52.286;20.930;2023-01-31T06:28:49;99511.88;;;4.33;80.57
30724;BME280;17473;52.286;20.930;2023-01-31T06:31:17;99507.81;;;4.39;80.45
30724;BME280;17473;52.286;20.930;2023-01-31T06:33:44;99526.16;;;4.41;80.00
30724;BME280;17473;52.286;20.930;2023-01-31T06:36:15;99530.38;;;4.37;80.18
30724;BME280;17473;52.286;20.930;2023-01-31T06:38:52;99521.84;;;4.42;80.06
30724;BME280;17473;52.286;20.930;2023-01-31T06:41:19;99530.72;;;4.45;79.53
30724;BME280;17473;52.286;20.930;2023-01-31T06:43:47;99531.69;;;4.47;79.35
30724;BME280;17473;52.286;20.930;2023-01-31T06:46:14;99534.63;;;4.55;78.77
30724;BME280;17473;52.286;20.930;2023-01-31T06:48:41;99540.69;;;4.54;78.90
30724;BME280;17473;52.286;20.930;2023-01-31T06:51:09;99553.13;;;4.40;79.66
30724;BME280;17473;52.286;20.930;2023-01-31T06:53:36;99545.69;;;4.49;79.39
30724;BME280;17473;52.286;20.930;2023-01-31T06:56:04;99548.66;;;4.77;78.40
30724;BME280;17473;52.286;20.930;2023-01-31T06:58:31;99545.97;;;4.75;78.26
30724;BME280;17473;52.286;20.930;2023-01-31T07:01:11;99549.50;;;4.76;77.90
30724;BME280;17473;52.286;20.930;2023-01-31T07:03:39;99549.22;;;4.69;78.23
30724;BME280;17473;52.286;20.930;2023-01-31T07:06:08;99554.56;;;4.73;78.20
30724;BME280;17473;52.286;20.930;2023-01-31T07:08:36;99562.31;;;4.69;77.77
30724;BME280;17473;52.286;20.930;2023-01-31T07:11:04;99568.88;;;4.81;77.55
30724;BME280;17473;52.286;20.930;2023-01-31T07:13:32;99580.09;;;4.78;77.41
30724;BME280;17473;52.286;20.930;2023-01-31T07:15:59;99581.03;;;4.79;77.37
30724;BME280;17473;52.286;20.930;2023-01-31T07:18:26;99584.78;;;4.85;77.02
30724;BME280;17473;52.286;20.930;2023-01-31T07:20:54;99595.19;;;4.84;76.94
30724;BME280;17473;52.286;20.930;2023-01-31T07:23:21;99593.44;;;4.84;76.03
30724;BME280;17473;52.286;20.930;2023-01-31T07:25:48;99604.25;;;4.92;75.97
30724;BME280;17473;52.286;20.930;2023-01-31T07:28:16;99614.16;;;4.99;75.79
30724;BME280;17473;52.286;20.930;2023-01-31T07:30:43;99613.69;;;4.89;76.00
30724;BME280;17473;52.286;20.930;2023-01-31T07:33:12;99621.41;;;4.85;75.70
30724;BME280;17473;52.286;20.930;2023-01-31T07:35:41;99614.59;;;4.89;76.00
30724;BME280;17473;52.286;20.930;2023-01-31T07:38:09;99613.84;;;4.92;75.80
30724;BME280;17473;52.286;20.930;2023-01-31T07:40:37;99635.03;;;4.98;75.51
30724;BME280;17473;52.286;20.930;2023-01-31T07:43:05;99613.97;;;4.95;75.43
30724;BME280;17473;52.286;20.930;2023-01-31T07:45:33;99640.53;;;5.04;75.29
30724;BME280;17473;52.286;20.930;2023-01-31T07:48:00;99634.06;;;5.15;74.68
30724;BME280;17473;52.286;20.930;2023-01-31T07:50:28;99638.53;;;5.18;74.34
30724;BME280;17473;52.286;20.930;2023-01-31T07:52:57;99637.75;;;5.21;74.01
30724;BME280;17473;52.286;20.930;2023-01-31T07:55:25;99648.19;;;5.40;73.28
30724;BME280;17473;52.286;20.930;2023-01-31T07:57:52;99663.53;;;5.52;72.94
30724;BME280;17473;52.286;20.930;2023-01-31T08:00:20;99670.53;;;5.32;72.93
30724;BME280;17473;52.286;20.930;2023-01-31T08:03:25;99670.75;;;5.37;72.99
30724;BME280;17473;52.286;20.930;2023-01-31T08:06:10;99666.22;;;5.32;72.84
30724;BME280;17473;52.286;20.930;2023-01-31T08:08:40;99677.78;;;5.38;72.56
30724;BME280;17473;52.286;20.930;2023-01-31T08:11:08;99666.06;;;5.29;72.89
30724;BME280;17473;52.286;20.930;2023-01-31T08:13:36;99679.41;;;5.36;72.23
30724;BME280;17473;52.286;20.930;2023-01-31T08:16:06;99685.69;;;5.39;71.75
30724;BME280;17473;52.286;20.930;2023-01-31T08:18:36;99682.63;;;5.49;71.73
30724;BME280;17473;52.286;20.930;2023-01-31T08:21:04;99690.25;;;5.43;71.26
30724;BME280;17473;52.286;20.930;2023-01-31T08:23:33;99699.28;;;5.30;71.48
30724;BME280;17473;52.286;20.930;2023-01-31T08:26:11;99697.13;;;5.41;71.01
30724;BME280;17473;52.286;20.930;2023-01-31T08:28:39;99696.69;;;5.52;70.33
30724;BME280;17473;52.286;20.930;2023-01-31T08:31:10;99704.16;;;5.42;70.54
30724;BME280;17473;52.286;20.930;2023-01-31T08:33:38;99707.44;;;5.58;70.17
30724;BME280;17473;52.286;20.930;2023-01-31T08:36:16;99705.41;;;5.72;69.55
30724;BME280;17473;52.286;20.930;2023-01-31T08:38:44;99702.19;;;5.58;69.60
30724;BME280;17473;52.286;20.930;2023-01-31T08:41:12;99708.97;;;5.53;69.80
30724;BME280;17473;52.286;20.930;2023-01-31T08:43:39;99706.50;;;5.77;69.06
30724;BME280;17473;52.286;20.930;2023-01-31T08:46:24;99715.16;;;6.17;67.75
30724;BME280;17473;52.286;20.930;2023-01-31T08:48:51;99706.72;;;6.24;67.56
30724;BME280;17473;52.286;20.930;2023-01-31T08:51:19;99720.97;;;6.53;66.66
30724;BME280;17473;52.286;20.930;2023-01-31T08:53:46;99712.09;;;6.50;66.20
30724;BME280;17473;52.286;20.930;2023-01-31T08:56:14;99725.44;;;6.56;66.09
30724;BME280;17473;52.286;20.930;2023-01-31T08:58:43;99723.25;;;6.44;66.11
30724;BME280;17473;52.286;20.930;2023-01-31T09:01:15;99729.41;;;6.23;66.71
30724;BME280;17473;52.286;20.930;2023-01-31T09:03:43;99720.06;;;6.30;66.19
30724;BME280;17473;52.286;20.930;2023-01-31T09:06:22;99723.19;;;6.42;65.78
30724;BME280;17473;52.286;20.930;2023-01-31T09:08:50;99728.19;;;6.36;65.81
30724;BME280;17473;52.286;20.930;2023-01-31T09:11:17;99729.41;;;6.23;65.61
30724;BME280;17473;52.286;20.930;2023-01-31T09:13:47;99732.34;;;6.31;65.56
30724;BME280;17473;52.286;20.930;2023-01-31T09:16:17;99727.94;;;6.30;65.35
30724;BME280;17473;52.286;20.930;2023-01-31T09:18:45;99735.03;;;6.11;65.71
30724;BME280;17473;52.286;20.930;2023-01-31T09:21:14;99741.28;;;6.15;65.87
30724;BME280;17473;52.286;20.930;2023-01-31T09:23:41;99746.63;;;6.17;65.84
30724;BME280;17473;52.286;20.930;2023-01-31T09:26:11;99743.53;;;6.06;66.20
30724;BME280;17473;52.286;20.930;2023-01-31T09:28:39;99753.47;;;6.13;65.82
30724;BME280;17473;52.286;20.930;2023-01-31T09:31:16;99746.28;;;6.09;66.01
30724;BME280;17473;52.286;20.930;2023-01-31T09:33:44;99756.84;;;6.10;65.84
30724;BME280;17473;52.286;20.930;2023-01-31T09:36:17;99765.69;;;5.93;65.83
30724;BME280;17473;52.286;20.930;2023-01-31T09:38:44;99753.34;;;5.90;66.24
30724;BME280;17473;52.286;20.930;2023-01-31T09:41:37;99748.06;;;5.89;65.92
30724;BME280;17473;52.286;20.930;2023-01-31T09:44:27;99757.91;;;5.94;65.76
30724;BME280;17473;52.286;20.930;2023-01-31T09:47:14;99760.56;;;6.16;65.31
30724;BME280;17473;52.286;20.930;2023-01-31T09:49:53;99769.44;;;6.19;65.20
30724;BME280;17473;52.286;20.930;2023-01-31T09:52:22;99770.31;;;6.20;65.16
30724;BME280;17473;52.286;20.930;2023-01-31T09:54:49;99768.72;;;6.23;65.06
30724;BME280;17473;52.286;20.930;2023-01-31T09:57:28;99756.66;;;6.27;64.74
30724;BME280;17473;52.286;20.930;2023-01-31T10:00:32;99773.03;;;6.42;64.47
30724;BME280;17473;52.286;20.930;2023-01-31T10:04:28;99766.31;;;6.49;63.71
30724;BME280;17473;52.286;20.930;2023-01-31T10:06:35;99769.47;;;6.42;63.99
30724;BME280;17473;52.286;20.930;2023-01-31T10:11:48;99774.09;;;6.48;63.72
30724;BME280;17473;52.286;20.930;2023-01-31T10:14:36;99766.03;;;6.43;63.40
30724;BME280;17473;52.286;20.930;2023-01-31T10:17:55;99761.44;;;6.58;62.95
30724;BME280;17473;52.286;20.930;2023-01-31T10:20:45;99768.25;;;6.55;63.16
30724;BME280;17473;52.286;20.930;2023-01-31T10:23:25;99758.28;;;6.46;63.44
30724;BME280;17473;52.286;20.930;2023-01-31T10:26:05;99768.19;;;6.53;63.21
30724;BME280;17473;52.286;20.930;2023-01-31T10:28:47;99762.91;;;6.74;62.43
30724;BME280;17473;52.286;20.930;2023-01-31T10:34:36;99770.13;;;6.80;61.40
30724;BME280;17473;52.286;20.930;2023-01-31T10:40:17;99768.59;;;6.85;60.93
30724;BME280;17473;52.286;20.930;2023-01-31T10:43:13;99765.63;;;7.00;60.29
30724;BME280;17473;52.286;20.930;2023-01-31T10:45:42;99767.91;;;7.14;59.59
30724;BME280;17473;52.286;20.930;2023-01-31T10:48:17;99758.97;;;7.33;59.29
30724;BME280;17473;52.286;20.930;2023-01-31T10:51:48;99770.94;;;7.49;58.70
30724;BME280;17473;52.286;20.930;2023-01-31T10:56:46;99755.19;;;7.99;57.24
30724;BME280;17473;52.286;20.930;2023-01-31T10:59:29;99754.06;;;7.92;56.82
30724;BME280;17473;52.286;20.930;2023-01-31T11:01:58;99756.69;;;7.92;56.84
30724;BME280;17473;52.286;20.930;2023-01-31T11:04:37;99757.50;;;7.90;56.53
30724;BME280;17473;52.286;20.930;2023-01-31T11:07:06;99745.22;;;7.90;56.27
30724;BME280;17473;52.286;20.930;2023-01-31T11:09:40;99753.28;;;7.95;55.94
30724;BME280;17473;52.286;20.930;2023-01-31T11:12:08;99757.78;;;7.97;55.98
30724;BME280;17473;52.286;20.930;2023-01-31T11:14:35;99761.16;;;7.95;56.05
30724;BME280;17473;52.286;20.930;2023-01-31T11:17:16;99763.78;;;7.69;56.36
30724;BME280;17473;52.286;20.930;2023-01-31T11:19:51;99769.44;;;7.56;56.46
30724;BME280;17473;52.286;20.930;2023-01-31T11:22:38;99765.81;;;7.52;56.70
30724;BME280;17473;52.286;20.930;2023-01-31T11:25:06;99762.09;;;7.47;56.26
30724;BME280;17473;52.286;20.930;2023-01-31T11:27:42;99771.25;;;7.57;56.42
30724;BME280;17473;52.286;20.930;2023-01-31T11:30:31;99770.63;;;7.40;56.33
30724;BME280;17473;52.286;20.930;2023-01-31T11:33:01;99780.91;;;7.33;56.62
30724;BME280;17473;52.286;20.930;2023-01-31T11:35:31;99780.00;;;7.33;56.25
30724;BME280;17473;52.286;20.930;2023-01-31T11:38:00;99779.56;;;7.20;56.44
30724;BME280;17473;52.286;20.930;2023-01-31T11:40:38;99785.56;;;7.18;55.91
30724;BME280;17473;52.286;20.930;2023-01-31T11:43:29;99771.81;;;7.01;55.98
30724;BME280;17473;52.286;20.930;2023-01-31T11:46:01;99772.59;;;6.98;56.30
30724;BME280;17473;52.286;20.930;2023-01-31T11:48:43;99778.25;;;7.09;56.06
30724;BME280;17473;52.286;20.930;2023-01-31T11:51:26;99762.78;;;7.17;56.36
30724;BME280;17473;52.286;20.930;2023-01-31T11:53:56;99769.31;;;7.28;56.22
30724;BME280;17473;52.286;20.930;2023-01-31T11:56:30;99766.16;;;7.37;56.11
30724;BME280;17473;52.286;20.930;2023-01-31T11:59:02;99763.88;;;7.24;55.63
30724;BME280;17473;52.286;20.930;2023-01-31T12:01:40;99749.38;;;7.33;55.29
30724;BME280;17473;52.286;20.930;2023-01-31T12:04:17;99753.44;;;7.49;54.40
30724;BME280;17473;52.286;20.930;2023-01-31T12:07:53;99735.53;;;7.63;54.08
30724;BME280;17473;52.286;20.930;2023-01-31T12:09:56;99742.44;;;7.86;53.87
30724;BME280;17473;52.286;20.930;2023-01-31T12:12:29;99742.34;;;7.82;53.65
30724;BME280;17473;52.286;20.930;2023-01-31T12:15:04;99742.59;;;7.64;54.21
30724;BME280;17473;52.286;20.930;2023-01-31T12:17:39;99741.69;;;7.88;54.29
30724;BME280;17473;52.286;20.930;2023-01-31T12:20:37;99729.00;;;8.02;54.02
30724;BME280;17473;52.286;20.930;2023-01-31T12:23:35;99730.59;;;7.98;53.81
30724;BME280;17473;52.286;20.930;2023-01-31T12:34:39;99725.63;;;7.80;52.93
30724;BME280;17473;52.286;20.930;2023-01-31T12:37:45;99750.63;;;7.69;53.29
30724;BME280;17473;52.286;20.930;2023-01-31T12:43:46;99742.38;;;7.58;53.04
30724;BME280;17473;52.286;20.930;2023-01-31T12:55:31;99731.25;;;7.41;52.65
30724;BME280;17473;52.286;20.930;2023-01-31T13:02:15;99725.47;;;7.26;53.09
30724;BME280;17473;52.286;20.930;2023-01-31T13:07:51;99723.06;;;7.08;53.22
30724;BME280;17473;52.286;20.930;2023-01-31T13:10:57;99712.69;;;6.88;53.19
30724;BME280;17473;52.286;20.930;2023-01-31T13:14:02;99719.44;;;6.81;52.96
30724;BME280;17473;52.286;20.930;2023-01-31T13:16:36;99734.31;;;6.81;53.04
30724;BME280;17473;52.286;20.930;2023-01-31T13:19:25;99727.63;;;6.89;53.04
30724;BME280;17473;52.286;20.930;2023-01-31T13:21:59;99732.38;;;6.77;53.62
30724;BME280;17473;52.286;20.930;2023-01-31T13:24:41;99720.41;;;6.83;53.31
30724;BME280;17473;52.286;20.930;2023-01-31T13:29:48;99711.78;;;7.10;52.85
30724;BME280;17473;52.286;20.930;2023-01-31T13:32:40;99713.66;;;6.90;53.37
30724;BME280;17473;52.286;20.930;2023-01-31T13:35:52;99711.56;;;6.81;53.47
30724;BME280;17473;52.286;20.930;2023-01-31T13:38:21;99719.59;;;6.86;53.51
30724;BME280;17473;52.286;20.930;2023-01-31T13:40:53;99713.56;;;6.88;53.32
30724;BME280;17473;52.286;20.930;2023-01-31T13:43:22;99707.94;;;6.78;53.46
30724;BME280;17473;52.286;20.930;2023-01-31T13:46:03;99709.47;;;6.72;53.92
30724;BME280;17473;52.286;20.930;2023-01-31T13:48:56;99718.13;;;6.70;53.88
30724;BME280;17473;52.286;20.930;2023-01-31T13:51:50;99709.34;;;6.47;54.85
30724;BME280;17473;52.286;20.930;2023-01-31T13:54:31;99714.31;;;6.62;53.91
30724;BME280;17473;52.286;20.930;2023-01-31T13:57:02;99723.66;;;6.55;54.00
30724;BME280;17473;52.286;20.930;2023-01-31T13:59:35;99719.84;;;6.47;54.12
30724;BME280;17473;52.286;20.930;2023-01-31T14:02:15;99720.66;;;6.46;54.13
30724;BME280;17473;52.286;20.930;2023-01-31T14:04:43;99720.56;;;6.42;54.20
30724;BME280;17473;52.286;20.930;2023-01-31T14:07:19;99717.47;;;6.53;53.89
30724;BME280;17473;52.286;20.930;2023-01-31T14:14:48;99704.78;;;6.20;54.17
30724;BME280;17473;52.286;20.930;2023-01-31T14:22:31;99704.16;;;6.04;54.36
30724;BME280;17473;52.286;20.930;2023-01-31T14:28:01;99709.22;;;6.00;53.86
30724;BME280;17473;52.286;20.930;2023-01-31T14:38:45;99713.16;;;5.90;54.22
30724;BME280;17473;52.286;20.930;2023-01-31T14:44:24;99704.09;;;5.82;54.59
30724;BME280;17473;52.286;20.930;2023-01-31T14:59:33;99702.00;;;5.74;54.92
30724;BME280;17473;52.286;20.930;2023-01-31T15:05:03;99699.56;;;5.58;55.17
30724;BME280;17473;52.286;20.930;2023-01-31T15:07:32;99691.03;;;5.62;55.44
30724;BME280;17473;52.286;20.930;2023-01-31T15:10:00;99690.13;;;5.61;55.46
30724;BME280;17473;52.286;20.930;2023-01-31T15:12:55;99694.81;;;5.69;55.41
30724;BME280;17473;52.286;20.930;2023-01-31T15:15:37;99697.88;;;5.58;55.53
30724;BME280;17473;52.286;20.930;2023-01-31T15:18:18;99689.66;;;5.51;55.68
30724;BME280;17473;52.286;20.930;2023-01-31T15:20:55;99678.31;;;5.50;55.67
30724;BME280;17473;52.286;20.930;2023-01-31T15:23:27;99690.59;;;5.51;55.80
30724;BME280;17473;52.286;20.930;2023-01-31T15:25:57;99686.44;;;5.37;55.87
30724;BME280;17473;52.286;20.930;2023-01-31T15:28:29;99678.66;;;5.38;55.73
30724;BME280;17473;52.286;20.930;2023-01-31T15:31:04;99693.47;;;5.38;55.79
30724;BME280;17473;52.286;20.930;2023-01-31T15:33:52;99694.03;;;5.30;55.88
30724;BME280;17473;52.286;20.930;2023-01-31T15:36:43;99691.03;;;5.21;56.43
30724;BME280;17473;52.286;20.930;2023-01-31T15:39:25;99690.09;;;5.21;56.55
30724;BME280;17473;52.286;20.930;2023-01-31T15:41:55;99694.53;;;5.22;56.81
30724;BME280;17473;52.286;20.930;2023-01-31T15:44:26;99687.28;;;5.16;57.27
30724;BME280;17473;52.286;20.930;2023-01-31T15:46:56;99684.75;;;5.17;57.38